Time;durP1;ratioP1;P1;durP2;ratioP2;P2;SDS_P1;SDS_P2;PMS_P1;PMS_P2;Temp;Humidity;BMP_temperature;BMP_pressure;BME280_temperature;BME280_humidity;BME280_pressure;Samples;Min_cycle;Max_cycle;Signal;HPM_P1;HPM_P2
2021/11/12 00:04:04;;;;;;;19.50;12.23;;;9.60;91.20;;;;;;2106369;28;20040;-91
2021/11/12 00:12:04;;;;;;;17.80;12.25;;;9.60;91.30;;;;;;2109946;28;20536;-88
2021/11/12 00:13:18;;;;;;;17.17;12.27;;;9.60;91.20;;;;;;2099264;28;20032;-90
2021/11/12 00:14:25;;;;;;;19.85;13.32;;;9.60;91.20;;;;;;2105355;28;20056;-88
2021/11/12 00:15:26;;;;;;;20.92;13.25;;;9.60;91.20;;;;;;2108491;28;20034;-88
2021/11/12 00:16:28;;;;;;;19.48;12.63;;;9.60;91.20;;;;;;2102840;28;20028;-89
2021/11/12 00:17:33;;;;;;;21.35;14.18;;;9.70;91.30;;;;;;2093844;28;20025;-90
2021/11/12 00:18:35;;;;;;;19.52;13.45;;;9.70;91.30;;;;;;2093037;28;20036;-88
2021/11/12 00:19:36;;;;;;;24.17;14.43;;;9.70;91.30;;;;;;2103504;28;20474;-88
2021/11/12 00:20:37;;;;;;;20.30;13.90;;;9.70;91.30;;;;;;2109096;28;20079;-89
2021/11/12 00:21:40;;;;;;;21.65;13.93;;;9.70;91.30;;;;;;2102554;28;20058;-89
2021/11/12 00:22:40;;;;;;;19.52;13.48;;;9.70;91.30;;;;;;2092294;28;20027;-89
2021/11/12 00:23:41;;;;;;;21.92;14.32;;;9.70;91.30;;;;;;2106099;28;20050;-89
2021/11/12 00:24:42;;;;;;;19.27;13.73;;;9.70;91.30;;;;;;2108311;28;20032;-89
2021/11/12 00:25:43;;;;;;;20.83;14.07;;;9.70;91.30;;;;;;2107977;28;20035;-89
2021/11/12 00:26:43;;;;;;;19.27;13.88;;;9.70;91.30;;;;;;2099516;28;20127;-89
2021/11/12 00:27:45;;;;;;;20.58;13.95;;;9.70;91.30;;;;;;2086923;28;20095;-89
2021/11/12 00:28:56;;;;;;;19.90;13.60;;;9.70;91.30;;;;;;2089404;28;20037;-88
2021/11/12 00:30:04;;;;;;;20.80;13.93;;;9.70;91.30;;;;;;2104662;28;20028;-89
2021/11/12 00:37:44;;;;;;;19.15;13.02;;;9.70;91.30;;;;;;2115525;27;20054;-89
2021/11/12 00:40:12;;;;;;;19.45;13.18;;;9.70;91.20;;;;;;2108752;28;20047;-89
2021/11/12 00:43:44;;;;;;;19.00;11.68;;;9.60;91.20;;;;;;2085007;28;20045;-89
2021/11/12 00:48:42;;;;;;;17.58;12.73;;;9.60;91.40;;;;;;2109673;28;20122;-89
2021/11/12 00:49:44;;;;;;;20.27;13.05;;;9.60;91.30;;;;;;2108698;28;20089;-89
2021/11/12 00:51:50;;;;;;;20.08;13.48;;;9.60;91.30;;;;;;2100501;27;20032;-89
2021/11/12 00:54:55;;;;;;;18.80;13.50;;;9.60;91.30;;;;;;2095399;28;20027;-90
2021/11/12 00:55:56;;;;;;;19.17;13.35;;;9.60;91.30;;;;;;2102929;28;20457;-89
2021/11/12 00:56:57;;;;;;;22.77;13.93;;;9.60;91.30;;;;;;2101542;28;20171;-90
2021/11/12 00:57:58;;;;;;;25.13;14.52;;;9.60;91.30;;;;;;2093982;28;20089;-90
2021/11/12 00:59:01;;;;;;;19.13;13.50;;;9.60;91.30;;;;;;2099710;28;20032;-90
2021/11/12 01:00:05;;;;;;;21.27;12.85;;;9.60;91.30;;;;;;2109997;28;20035;-90
2021/11/12 01:01:05;;;;;;;21.67;14.20;;;9.70;91.30;;;;;;2118441;28;20027;-89
2021/11/12 01:02:06;;;;;;;20.80;13.82;;;9.60;91.30;;;;;;2109402;28;20062;-90
2021/11/12 01:03:07;;;;;;;19.77;13.45;;;9.70;91.30;;;;;;2104943;28;20056;-90
2021/11/12 01:04:10;;;;;;;18.23;12.77;;;9.70;91.30;;;;;;2112595;28;20138;-88
2021/11/12 01:05:12;;;;;;;23.15;14.07;;;9.70;91.30;;;;;;2119544;28;20003;-89
2021/11/12 01:06:12;;;;;;;20.95;13.65;;;9.60;91.30;;;;;;2127625;27;20023;-89
2021/11/12 01:07:14;;;;;;;20.58;13.90;;;9.70;91.30;;;;;;2115106;28;20079;-89
2021/11/12 01:08:16;;;;;;;22.20;13.57;;;9.70;91.30;;;;;;2097039;28;20048;-89
2021/11/12 01:09:20;;;;;;;19.40;12.98;;;9.60;91.30;;;;;;2105321;28;20052;-82
2021/11/12 01:10:20;;;;;;;19.77;13.43;;;9.70;91.30;;;;;;2111898;28;20063;-90
2021/11/12 01:11:24;;;;;;;20.85;13.65;;;9.70;91.30;;;;;;2111297;28;20044;-89
2021/11/12 01:12:26;;;;;;;20.65;13.90;;;9.70;91.60;;;;;;2116254;28;20028;-90
2021/11/12 01:13:27;;;;;;;20.55;13.75;;;9.70;91.30;;;;;;2110895;28;20039;-89
2021/11/12 01:14:27;;;;;;;19.90;13.45;;;9.60;91.30;;;;;;2101942;28;20040;-90
2021/11/12 01:15:28;;;;;;;19.65;13.27;;;9.70;91.30;;;;;;2093683;28;20040;-90
2021/11/12 01:16:30;;;;;;;19.13;13.18;;;9.70;91.30;;;;;;2093879;28;20533;-90
2021/11/12 01:17:31;;;;;;;19.20;13.38;;;9.70;91.30;;;;;;2103252;28;20040;-90
2021/11/12 01:18:34;;;;;;;21.10;14.02;;;9.70;91.30;;;;;;2108569;28;20105;-90
2021/11/12 01:19:37;;;;;;;20.20;13.40;;;9.70;91.30;;;;;;2118585;27;20019;-90
2021/11/12 01:20:38;;;;;;;18.88;13.15;;;9.70;91.30;;;;;;2102682;28;20101;-89
2021/11/12 01:21:40;;;;;;;19.50;13.68;;;9.70;91.30;;;;;;2100635;28;20106;-90
2021/11/12 01:22:42;;;;;;;20.25;13.52;;;9.70;91.30;;;;;;2101634;28;20028;-89
2021/11/12 01:23:46;;;;;;;19.80;13.90;;;9.70;91.30;;;;;;2101883;28;20020;-91
2021/11/12 01:24:47;;;;;;;19.67;13.98;;;9.70;91.30;;;;;;2108094;28;20028;-90
2021/11/12 01:25:48;;;;;;;19.42;13.80;;;9.60;91.30;;;;;;2095086;28;20036;-90
2021/11/12 01:26:49;;;;;;;18.88;13.57;;;9.70;91.30;;;;;;2085496;28;20029;-90
2021/11/12 01:27:50;;;;;;;18.42;13.45;;;9.70;91.30;;;;;;2084594;28;20025;-91
2021/11/12 01:28:52;;;;;;;19.63;13.75;;;9.70;91.30;;;;;;2093573;28;20031;-89
2021/11/12 01:29:54;;;;;;;20.40;13.63;;;9.70;91.30;;;;;;2113335;27;20047;-90
2021/11/12 01:30:54;;;;;;;20.73;14.38;;;9.70;91.30;;;;;;2105075;28;20580;-90
2021/11/12 01:31:55;;;;;;;20.50;14.02;;;9.70;91.30;;;;;;2109181;28;20450;-90
2021/11/12 01:32:56;;;;;;;19.48;13.57;;;9.70;91.30;;;;;;2100139;28;20062;-90
2021/11/12 01:34:01;;;;;;;19.15;13.98;;;9.70;91.30;;;;;;2083666;28;20123;-90
2021/11/12 01:35:04;;;;;;;19.17;13.30;;;9.70;91.30;;;;;;2101326;28;20024;-89
2021/11/12 01:36:26;;;;;;;18.38;13.02;;;9.70;91.30;;;;;;2109388;28;20020;-90
2021/11/12 01:37:27;;;;;;;;;;;9.70;91.30;;;;;;2109422;28;20028;-89
2021/11/12 01:38:28;;;;;;;19.05;12.85;;;9.70;91.30;;;;;;2111818;28;19988;-89
2021/11/12 01:39:30;;;;;;;19.35;12.43;;;9.60;91.30;;;;;;2119421;28;20016;-90
2021/11/12 01:40:31;;;;;;;18.17;12.63;;;9.60;91.20;;;;;;2117850;28;20332;-88
2021/11/12 01:41:32;;;;;;;17.30;12.30;;;9.60;91.30;;;;;;2103814;28;20086;-90
2021/11/12 01:43:02;;;;;;;18.83;13.02;;;9.60;91.30;;;;;;2101530;28;20160;-90
2021/11/12 01:44:06;;;;;;;19.00;13.45;;;9.60;91.30;;;;;;2101227;28;20015;-90
2021/11/12 01:45:09;;;;;;;19.00;12.93;;;9.60;91.30;;;;;;2094437;28;20020;-89
2021/11/12 01:47:35;;;;;;;18.83;13.43;;;9.60;91.30;;;;;;2105188;28;20394;-90
2021/11/12 01:48:51;;;;;;;16.92;12.43;;;9.60;91.30;;;;;;2089190;28;20025;-90
2021/11/12 01:49:54;;;;;;;18.75;12.90;;;9.60;91.30;;;;;;2098775;28;20043;-90
2021/11/12 01:53:47;;;;;;;19.30;12.73;;;9.60;91.30;;;;;;2084109;28;20084;-90
2021/11/12 01:54:59;;;;;;;18.52;13.07;;;9.60;91.30;;;;;;2107682;28;20047;-90
2021/11/12 01:56:24;;;;;;;18.95;13.32;;;9.60;91.30;;;;;;2109756;28;20034;-90
2021/11/12 01:58:37;;;;;;;18.65;13.25;;;9.60;91.30;;;;;;2108181;28;20079;-90
2021/11/12 01:59:38;;;;;;;18.30;12.70;;;9.60;91.30;;;;;;2108518;28;20044;-89
2021/11/12 02:00:39;;;;;;;19.33;12.88;;;9.50;91.30;;;;;;2109265;28;20107;-89
2021/11/12 02:01:57;;;;;;;20.13;13.85;;;9.50;91.30;;;;;;2108559;28;20016;-88
2021/11/12 02:03:00;;;;;;;21.42;13.60;;;9.60;91.30;;;;;;2107725;28;20577;-89
2021/11/12 02:04:02;;;;;;;22.13;13.90;;;9.50;91.30;;;;;;2101703;28;20529;-89
2021/11/12 02:05:03;;;;;;;18.50;12.88;;;9.50;91.40;;;;;;2090790;28;20036;-88
2021/11/12 02:06:04;;;;;;;18.05;12.70;;;9.50;91.30;;;;;;2093763;28;20043;-90
2021/11/12 02:07:05;;;;;;;19.48;13.63;;;9.50;91.30;;;;;;2092763;28;20066;-90
2021/11/12 02:08:06;;;;;;;21.70;13.82;;;9.50;91.40;;;;;;2077650;28;20018;-89
2021/11/12 02:09:19;;;;;;;20.50;13.75;;;9.50;91.40;;;;;;2078207;28;20522;-89
2021/11/12 02:10:23;;;;;;;20.30;13.48;;;9.50;91.40;;;;;;2096706;28;20845;-90
2021/11/12 02:11:24;;;;;;;19.38;13.27;;;9.50;91.40;;;;;;2111584;28;20038;-90
2021/11/12 02:12:29;;;;;;;19.25;13.57;;;9.50;91.40;;;;;;2107514;28;20152;-90
2021/11/12 02:13:32;;;;;;;20.13;14.38;;;9.50;91.40;;;;;;2091752;28;20037;-90
2021/11/12 02:14:33;;;;;;;21.27;14.10;;;9.50;91.50;;;;;;2101906;28;20127;-89
2021/11/12 02:15:36;;;;;;;21.80;13.43;;;9.50;91.50;;;;;;2098491;28;20032;-89
2021/11/12 02:16:43;;;;;;;20.90;14.13;;;9.50;91.50;;;;;;2091174;28;20556;-90
2021/11/12 02:17:47;;;;;;;19.88;13.50;;;9.50;91.50;;;;;;2109334;28;20019;-89
2021/11/12 02:18:48;;;;;;;19.58;12.90;;;9.50;91.50;;;;;;2101005;28;20847;-89
2021/11/12 02:19:56;;;;;;;20.95;13.18;;;9.50;91.50;;;;;;2093616;28;20518;-90
2021/11/12 02:22:14;;;;;;;20.58;13.60;;;9.40;91.40;;;;;;2103710;28;20043;-90
2021/11/12 02:23:17;;;;;;;19.55;13.23;;;9.40;91.50;;;;;;2108572;27;20125;-90
2021/11/12 02:24:18;;;;;;;19.50;13.57;;;9.40;91.50;;;;;;2104777;28;20036;-90
2021/11/12 02:26:01;;;;;;;21.85;13.82;;;9.40;91.50;;;;;;2089237;28;20052;-90
2021/11/12 02:26:46;;;;;;;21.30;13.65;;;9.40;91.50;;;;;;2092175;28;20039;-89
2021/11/12 02:27:57;;;;;;;18.98;13.45;;;9.40;91.50;;;;;;2098362;28;20028;-89
2021/11/12 02:28:58;;;;;;;21.85;13.90;;;9.40;91.50;;;;;;2102579;28;20024;-89
2021/11/12 02:29:59;;;;;;;18.98;13.25;;;9.40;91.50;;;;;;2100315;28;20116;-89
2021/11/12 02:31:02;;;;;;;20.33;13.50;;;9.40;91.60;;;;;;2084803;28;20059;-90
2021/11/12 02:32:03;;;;;;;20.65;14.07;;;9.30;91.50;;;;;;2085667;28;20029;-90
2021/11/12 02:33:11;;;;;;;20.08;13.70;;;9.30;91.60;;;;;;2077595;28;20037;-89
2021/11/12 02:34:14;;;;;;;21.58;13.10;;;9.30;91.60;;;;;;2100723;28;20028;-89
2021/11/12 02:35:16;;;;;;;20.38;13.82;;;9.30;91.60;;;;;;2105933;28;20041;-90
2021/11/12 02:36:18;;;;;;;22.15;14.25;;;9.30;91.60;;;;;;2102416;28;20076;-90
2021/11/12 02:37:21;;;;;;;21.50;13.85;;;9.30;91.60;;;;;;2102545;28;20032;-91
2021/11/12 02:38:22;;;;;;;21.40;14.10;;;9.30;91.60;;;;;;2108029;28;20023;-90
2021/11/12 02:39:23;;;;;;;21.33;14.05;;;9.30;91.60;;;;;;2100564;28;20479;-90
2021/11/12 02:40:24;;;;;;;19.85;13.25;;;9.20;91.60;;;;;;2099343;28;20028;-90
2021/11/12 02:41:25;;;;;;;25.08;15.45;;;9.20;91.60;;;;;;2107479;28;20126;-91
2021/11/12 02:42:26;;;;;;;21.83;13.43;;;9.30;91.70;;;;;;2105025;28;20028;-90
2021/11/12 02:43:27;;;;;;;22.08;14.30;;;9.20;91.90;;;;;;2100531;28;20029;-89
2021/11/12 02:44:33;;;;;;;20.48;14.43;;;9.20;91.60;;;;;;2098359;28;20146;-90
2021/11/12 02:45:36;;;;;;;21.70;14.32;;;9.20;91.70;;;;;;2107154;28;20042;-90
2021/11/12 02:46:37;;;;;;;21.05;13.95;;;9.30;91.70;;;;;;2099860;28;20055;-89
2021/11/12 02:47:38;;;;;;;20.98;13.73;;;9.20;91.70;;;;;;2104476;28;20029;-90
2021/11/12 02:48:40;;;;;;;21.55;13.60;;;9.20;91.70;;;;;;2118664;28;20071;-89
2021/11/12 02:49:41;;;;;;;19.85;13.45;;;9.20;91.70;;;;;;2120993;28;20091;-90
2021/11/12 02:50:42;;;;;;;20.35;14.55;;;9.20;91.70;;;;;;2118026;28;20016;-89
2021/11/12 02:51:43;;;;;;;21.65;14.50;;;9.10;91.70;;;;;;2119579;28;20119;-89
2021/11/12 02:52:45;;;;;;;21.35;14.23;;;9.20;91.70;;;;;;2116943;28;20035;-90
2021/11/12 02:53:46;;;;;;;19.40;13.88;;;9.10;91.70;;;;;;2115162;28;20047;-90
2021/11/12 02:54:48;;;;;;;23.23;14.38;;;9.10;91.70;;;;;;2097712;28;20039;-90
2021/11/12 02:55:50;;;;;;;21.05;14.30;;;9.10;91.70;;;;;;2093473;28;20028;-88
2021/11/12 02:56:54;;;;;;;21.38;14.38;;;9.10;91.70;;;;;;2094129;28;20106;-90
2021/11/12 02:57:55;;;;;;;21.02;14.15;;;9.10;91.70;;;;;;2100414;28;20128;-90
2021/11/12 02:59:07;;;;;;;21.73;14.48;;;9.10;91.70;;;;;;2074788;28;20033;-90
2021/11/12 03:00:11;;;;;;;20.20;13.98;;;9.20;91.80;;;;;;2095268;28;20075;-90
2021/11/12 03:01:12;;;;;;;20.83;14.35;;;9.10;91.70;;;;;;2108280;28;20035;-90
2021/11/12 03:02:13;;;;;;;19.90;13.95;;;9.10;91.70;;;;;;2106857;28;20070;-90
2021/11/12 03:03:15;;;;;;;21.27;14.43;;;9.10;91.70;;;;;;2098219;28;20470;-90
2021/11/12 03:04:18;;;;;;;19.63;14.02;;;9.10;91.70;;;;;;2087590;28;20036;-90
2021/11/12 03:05:18;;;;;;;22.67;14.68;;;9.10;91.80;;;;;;2091851;28;20537;-90
2021/11/12 03:06:20;;;;;;;20.02;14.07;;;9.10;91.70;;;;;;2093145;28;20029;-90
2021/11/12 03:07:21;;;;;;;21.10;14.10;;;9.10;91.70;;;;;;2092899;28;20024;-90
2021/11/12 03:08:21;;;;;;;20.92;13.63;;;9.10;91.80;;;;;;2100041;28;20073;-89
2021/11/12 03:09:27;;;;;;;20.55;13.63;;;9.10;91.80;;;;;;2108176;28;20096;-90
2021/11/12 03:10:28;;;;;;;21.23;14.07;;;9.00;91.80;;;;;;2107354;28;20019;-91
2021/11/12 03:11:29;;;;;;;19.95;13.95;;;9.00;91.70;;;;;;2112085;27;20034;-90
2021/11/12 03:12:30;;;;;;;19.25;13.80;;;9.00;91.70;;;;;;2103974;28;20106;-90
2021/11/12 03:13:31;;;;;;;19.73;13.65;;;9.00;91.70;;;;;;2105306;28;20055;-90
2021/11/12 03:14:32;;;;;;;22.55;14.82;;;9.00;91.70;;;;;;2101902;28;20080;-89
2021/11/12 03:15:33;;;;;;;22.05;15.38;;;9.00;91.70;;;;;;2107096;28;20023;-90
2021/11/12 03:16:34;;;;;;;23.60;15.18;;;9.00;91.70;;;;;;2108384;28;20440;-90
2021/11/12 03:17:36;;;;;;;22.70;14.80;;;8.90;91.60;;;;;;2111548;28;20123;-90
2021/11/12 03:18:37;;;;;;;20.60;14.20;;;8.90;91.60;;;;;;2108289;28;20106;-90
2021/11/12 03:19:38;;;;;;;21.90;14.77;;;8.90;91.60;;;;;;2108332;28;20031;-89
2021/11/12 03:20:39;;;;;;;21.70;14.73;;;8.90;91.60;;;;;;2106496;28;20060;-89
2021/11/12 03:21:43;;;;;;;22.10;14.32;;;8.90;91.60;;;;;;2100461;28;20021;-91
2021/11/12 03:22:56;;;;;;;25.40;15.40;;;8.90;91.60;;;;;;2100619;28;20127;-90
2021/11/12 03:24:04;;;;;;;23.10;15.63;;;8.90;91.50;;;;;;2105585;28;20537;-89
2021/11/12 03:25:12;;;;;;;22.40;14.50;;;8.90;91.50;;;;;;2103433;28;20471;-90
2021/11/12 04:00:22;;;;;;;22.02;14.13;;;8.60;90.90;;;;;;2106733;28;20085;-90
2021/11/12 04:03:03;;;;;;;19.83;13.07;;;8.60;90.90;;;;;;2056567;28;20038;-90
2021/11/12 04:04:17;;;;;;;22.13;14.30;;;8.60;90.90;;;;;;2090810;28;20048;-90
2021/11/12 04:06:59;;;;;;;21.60;14.02;;;8.50;90.90;;;;;;2107269;28;20070;-90
2021/11/12 04:17:25;;;;;;;20.33;12.98;;;8.40;90.80;;;;;;2113395;28;20079;-89
2021/11/12 05:44:23;;;;;;;17.83;12.23;;;6.40;91.10;;;;;;2108464;28;20042;-88
2021/11/12 05:45:46;;;;;;;17.50;12.25;;;6.40;91.10;;;;;;2107577;28;20196;-88
2021/11/12 05:50:57;;;;;;;16.30;12.10;;;6.40;91.10;;;;;;2103672;28;20131;-88
2021/11/12 05:52:12;;;;;;;16.45;12.15;;;6.30;91.00;;;;;;2106046;28;20052;-88
2021/11/12 05:55:52;;;;;;;15.32;10.52;;;6.30;91.10;;;;;;2098360;28;20056;-88
2021/11/12 05:56:55;;;;;;;16.00;11.20;;;6.30;91.10;;;;;;2094920;28;20050;-88
2021/11/12 05:57:59;;;;;;;15.25;11.27;;;6.30;91.10;;;;;;2094087;28;21653;-88
2021/11/12 05:58:59;;;;;;;15.30;10.80;;;6.30;91.10;;;;;;2102119;28;20032;-89
2021/11/12 06:00:00;;;;;;;16.13;11.63;;;6.30;91.10;;;;;;2111194;28;20494;-89
2021/11/12 06:01:02;;;;;;;15.23;11.30;;;6.30;91.10;;;;;;2106165;28;20038;-88
2021/11/12 06:02:06;;;;;;;15.07;10.98;;;6.30;91.40;;;;;;2101446;28;20039;-90
2021/11/12 06:03:06;;;;;;;15.00;10.95;;;6.30;91.10;;;;;;2106818;28;20671;-89
2021/11/12 06:04:07;;;;;;;18.08;11.95;;;6.30;91.10;;;;;;2114322;28;20039;-89
2021/11/12 06:05:09;;;;;;;16.92;12.18;;;6.30;91.00;;;;;;2114300;28;20104;-88
2021/11/12 06:06:10;;;;;;;16.17;11.73;;;6.30;91.00;;;;;;2108367;28;20062;-81
2021/11/12 06:07:10;;;;;;;17.92;12.73;;;6.30;91.10;;;;;;2119715;28;20026;-88
2021/11/12 06:08:12;;;;;;;16.27;11.68;;;6.20;91.00;;;;;;2120561;28;20043;-90
2021/11/12 06:09:13;;;;;;;16.23;11.65;;;6.20;91.00;;;;;;2118312;28;20024;-89
2021/11/12 06:10:14;;;;;;;15.38;11.63;;;6.20;91.10;;;;;;2118670;28;20519;-88
2021/11/12 06:11:15;;;;;;;16.92;11.25;;;6.20;91.10;;;;;;2110291;28;20025;-83
2021/11/12 06:12:16;;;;;;;16.85;11.45;;;6.20;91.10;;;;;;2112128;28;20060;-90
2021/11/12 06:13:17;;;;;;;15.90;11.10;;;6.20;91.10;;;;;;2110742;28;20067;-90
2021/11/12 06:14:18;;;;;;;16.13;11.38;;;6.20;91.10;;;;;;2095088;28;20039;-86
2021/11/12 06:15:19;;;;;;;15.60;11.30;;;6.20;91.10;;;;;;2105213;28;20024;-89
2021/11/12 06:16:20;;;;;;;16.88;11.70;;;6.20;91.10;;;;;;2104330;28;20075;-90
2021/11/12 06:17:20;;;;;;;16.23;11.32;;;6.10;91.10;;;;;;2106259;28;20179;-90
2021/11/12 06:18:21;;;;;;;16.15;11.02;;;6.10;91.10;;;;;;2101035;28;20036;-90
2021/11/12 06:19:23;;;;;;;14.60;11.15;;;6.10;91.10;;;;;;2100691;28;20024;-89
2021/11/12 06:20:24;;;;;;;15.55;11.27;;;6.10;91.10;;;;;;2099753;28;20028;-88
2021/11/12 06:21:25;;;;;;;14.68;10.50;;;6.10;91.10;;;;;;2100991;28;20083;-86
2021/11/12 06:22:26;;;;;;;15.25;10.75;;;6.10;91.10;;;;;;2098857;28;20040;-91
2021/11/12 06:23:29;;;;;;;16.05;11.63;;;6.20;91.10;;;;;;2085828;28;20499;-90
2021/11/12 06:24:30;;;;;;;14.63;10.73;;;6.10;91.20;;;;;;2085732;28;20402;-90
2021/11/12 06:25:31;;;;;;;14.52;11.15;;;6.10;91.10;;;;;;2101460;28;20020;-90
2021/11/12 06:26:32;;;;;;;14.73;10.80;;;6.10;91.10;;;;;;2092787;28;20108;-84
2021/11/12 06:27:34;;;;;;;16.08;11.35;;;6.10;91.10;;;;;;2102757;28;20037;-90
2021/11/12 06:28:36;;;;;;;17.48;12.50;;;6.00;91.10;;;;;;2107979;28;20660;-88
2021/11/12 06:29:37;;;;;;;16.25;11.43;;;6.00;91.10;;;;;;2107289;28;20160;-89
2021/11/12 06:30:38;;;;;;;15.82;11.48;;;6.00;91.10;;;;;;2114083;27;20026;-90
2021/11/12 06:31:38;;;;;;;14.95;10.43;;;6.00;91.10;;;;;;2114713;27;20050;-91
2021/11/12 06:32:39;;;;;;;16.77;12.15;;;6.00;91.20;;;;;;2108829;28;20028;-90
2021/11/12 06:33:40;;;;;;;16.98;11.85;;;6.00;91.10;;;;;;2092406;28;20114;-90
2021/11/12 06:34:42;;;;;;;16.60;12.13;;;6.00;91.10;;;;;;2090605;28;20032;-89
2021/11/12 06:35:43;;;;;;;17.70;11.57;;;6.00;91.10;;;;;;2093114;28;20029;-89
2021/11/12 06:36:44;;;;;;;16.77;11.95;;;6.00;91.20;;;;;;2079771;28;20025;-89
2021/11/12 06:37:45;;;;;;;16.52;11.40;;;6.00;91.10;;;;;;2088345;28;20029;-89
2021/11/12 06:38:46;;;;;;;15.07;11.10;;;5.90;91.10;;;;;;2089730;28;20043;-90
2021/11/12 06:39:46;;;;;;;16.08;11.60;;;5.90;91.10;;;;;;2086388;28;20025;-91
2021/11/12 06:40:50;;;;;;;14.68;10.73;;;5.90;91.10;;;;;;2101955;28;20048;-91
2021/11/12 06:43:09;;;;;;;16.95;11.80;;;5.90;91.10;;;;;;2110442;28;20032;-90
2021/11/12 06:44:26;;;;;;;14.52;10.57;;;5.90;91.10;;;;;;2109180;28;20028;-89
2021/11/12 06:50:23;;;;;;;15.50;10.88;;;5.90;91.10;;;;;;2109872;28;20026;-88
2021/11/12 06:51:24;;;;;;;15.02;10.65;;;5.90;91.10;;;;;;2107354;28;20034;-90
2021/11/12 06:52:27;;;;;;;15.18;10.50;;;5.80;91.10;;;;;;2109206;28;20441;-90
2021/11/12 06:53:28;;;;;;;14.88;10.18;;;5.80;91.10;;;;;;2112569;28;20027;-89
2021/11/12 06:54:28;;;;;;;14.68;10.13;;;5.90;91.10;;;;;;2100427;28;20032;-90
2021/11/12 06:55:29;;;;;;;16.30;10.80;;;5.80;91.10;;;;;;2092353;28;20052;-90
2021/11/12 06:56:30;;;;;;;14.35;10.18;;;5.80;91.10;;;;;;2091440;28;20086;-88
2021/11/12 06:57:30;;;;;;;16.83;11.30;;;5.80;91.10;;;;;;2082646;28;20025;-89
2021/11/12 06:58:31;;;;;;;15.43;10.95;;;5.80;91.10;;;;;;2094643;28;20031;-89
2021/11/12 06:59:32;;;;;;;15.10;10.68;;;5.80;91.10;;;;;;2109106;28;20119;-89
2021/11/12 07:00:34;;;;;;;17.25;12.07;;;5.80;91.10;;;;;;2111291;28;20063;-89
2021/11/12 07:01:35;;;;;;;15.02;11.32;;;5.80;91.10;;;;;;2102895;28;20398;-89
2021/11/12 07:02:35;;;;;;;16.88;11.20;;;5.70;91.00;;;;;;2098700;28;20064;-89
2021/11/12 07:03:36;;;;;;;15.18;11.00;;;5.70;91.10;;;;;;2096536;28;20033;-89
2021/11/12 07:04:37;;;;;;;15.38;11.00;;;5.70;91.10;;;;;;2089525;28;20078;-89
2021/11/12 07:05:38;;;;;;;16.98;11.35;;;5.70;91.10;;;;;;2102111;28;20032;-89
2021/11/12 07:06:39;;;;;;;17.63;11.65;;;5.70;91.10;;;;;;2107040;28;20036;-86
2021/11/12 07:07:39;;;;;;;15.68;11.30;;;5.70;91.10;;;;;;2084570;28;20487;-90
2021/11/12 07:08:40;;;;;;;15.48;10.90;;;5.70;91.10;;;;;;2087394;28;20103;-91
2021/11/12 07:09:41;;;;;;;17.25;11.25;;;5.70;91.10;;;;;;2101453;28;20028;-90
2021/11/12 07:10:42;;;;;;;16.17;11.25;;;5.70;91.10;;;;;;2100363;28;20482;-90
2021/11/12 07:11:43;;;;;;;15.45;11.23;;;5.70;91.10;;;;;;2108424;28;20017;-89
2021/11/12 07:12:43;;;;;;;16.45;11.48;;;5.70;91.10;;;;;;2099308;28;20028;-90
2021/11/12 07:13:44;;;;;;;14.77;10.77;;;5.70;91.10;;;;;;2084811;28;20045;-89
2021/11/12 07:14:46;;;;;;;15.85;11.73;;;5.70;91.10;;;;;;2092053;28;20106;-91
2021/11/12 07:15:48;;;;;;;14.80;10.73;;;5.70;91.10;;;;;;2113944;28;20050;-90
2021/11/12 07:16:49;;;;;;;16.17;10.73;;;5.60;91.00;;;;;;2109570;28;20044;-90
2021/11/12 07:17:49;;;;;;;17.33;11.50;;;5.60;91.10;;;;;;2101255;28;20494;-90
2021/11/12 07:18:54;;;;;;;18.02;12.45;;;5.60;91.00;;;;;;2104745;28;20111;-91
2021/11/12 07:19:55;;;;;;;15.77;11.65;;;5.60;91.10;;;;;;2096812;28;20121;-90
2021/11/12 07:20:56;;;;;;;16.25;11.70;;;5.60;91.10;;;;;;2097710;28;20114;-90
2021/11/12 07:21:58;;;;;;;15.70;11.48;;;5.60;91.10;;;;;;2101394;28;20127;-90
2021/11/12 07:22:59;;;;;;;18.23;11.77;;;5.60;91.00;;;;;;2112181;28;20026;-91
2021/11/12 07:24:00;;;;;;;14.73;10.50;;;5.60;91.10;;;;;;2112503;28;20024;-91
2021/11/12 07:25:02;;;;;;;17.25;12.18;;;5.60;91.40;;;;;;2101489;28;20084;-92
2021/11/12 07:26:03;;;;;;;17.15;11.63;;;5.50;91.10;;;;;;2098855;28;20052;-89
2021/11/12 07:27:05;;;;;;;16.83;11.57;;;5.50;91.10;;;;;;2106826;28;20032;-90
2021/11/12 07:28:05;;;;;;;15.98;11.65;;;5.50;91.10;;;;;;2103300;28;20236;-90
2021/11/12 07:29:06;;;;;;;15.10;10.63;;;5.60;91.10;;;;;;2090157;28;20118;-89
2021/11/12 07:30:12;;;;;;;17.05;11.32;;;5.50;91.10;;;;;;2082380;28;20037;-90
2021/11/12 07:31:13;;;;;;;15.63;11.32;;;5.60;91.10;;;;;;2091919;28;20021;-90
2021/11/12 07:32:16;;;;;;;15.13;11.25;;;5.50;91.10;;;;;;2107146;28;20072;-90
2021/11/12 07:33:17;;;;;;;16.40;11.07;;;5.50;91.10;;;;;;2092069;28;20528;-89
2021/11/12 07:34:18;;;;;;;15.75;10.82;;;5.50;91.10;;;;;;2091213;28;20443;-88
2021/11/12 07:35:24;;;;;;;15.13;10.85;;;5.60;91.10;;;;;;2097205;28;20060;-89
2021/11/12 07:36:35;;;;;;;17.15;11.70;;;5.60;91.10;;;;;;2097671;28;20642;-89
2021/11/12 07:37:36;;;;;;;15.23;10.68;;;5.60;91.10;;;;;;2099897;28;20036;-89
2021/11/12 07:38:52;;;;;;;14.30;10.55;;;5.60;91.00;;;;;;2090160;28;20036;-89
2021/11/12 07:39:53;;;;;;;14.75;10.40;;;5.60;91.00;;;;;;2093789;28;20423;-88
2021/11/12 07:45:19;;;;;;;15.82;10.30;;;5.70;90.90;;;;;;2108600;28;20024;-87
2021/11/12 07:47:33;;;;;;;15.32;9.77;;;5.70;90.90;;;;;;2107956;28;20029;-89
2021/11/12 07:48:34;;;;;;;14.77;10.65;;;5.70;90.90;;;;;;2112220;28;20032;-89
2021/11/12 07:49:36;;;;;;;15.02;10.63;;;5.70;90.80;;;;;;2104388;28;20028;-90
2021/11/12 07:50:38;;;;;;;15.25;10.75;;;5.70;90.90;;;;;;2102533;28;20017;-90
2021/11/12 07:51:42;;;;;;;16.48;11.18;;;5.70;90.80;;;;;;2087578;28;20033;-81
2021/11/12 07:52:42;;;;;;;15.93;10.55;;;5.70;90.80;;;;;;2101281;27;20404;-86
2021/11/12 07:53:43;;;;;;;14.65;10.15;;;5.70;90.80;;;;;;2113014;28;20044;-85
2021/11/12 07:54:45;;;;;;;15.27;10.82;;;5.70;90.80;;;;;;2119127;28;20451;-88
2021/11/12 07:55:46;;;;;;;15.60;10.38;;;5.80;90.80;;;;;;2097435;28;20041;-89
2021/11/12 07:56:46;;;;;;;15.18;10.38;;;5.80;90.90;;;;;;2094371;28;20059;-90
2021/11/12 07:57:47;;;;;;;15.40;11.02;;;5.80;91.10;;;;;;2115428;28;20024;-90
2021/11/12 07:58:48;;;;;;;15.90;10.73;;;5.80;90.80;;;;;;2093243;28;20548;-90
2021/11/12 07:59:49;;;;;;;13.85;10.07;;;5.80;90.80;;;;;;2088145;28;20479;-90
2021/11/12 08:00:49;;;;;;;15.40;10.20;;;5.90;90.80;;;;;;2102064;28;20043;-90
2021/11/12 08:01:50;;;;;;;13.93;10.43;;;5.90;90.80;;;;;;2101343;28;20040;-90
2021/11/12 08:02:50;;;;;;;15.25;10.60;;;5.90;90.80;;;;;;2104357;28;20032;-90
2021/11/12 08:03:56;;;;;;;16.15;10.93;;;5.90;91.10;;;;;;2107276;28;20036;-90
2021/11/12 08:05:01;;;;;;;15.13;11.00;;;5.90;90.80;;;;;;2096646;28;20025;-89
2021/11/12 08:06:04;;;;;;;14.65;10.88;;;5.90;90.80;;;;;;2094754;28;20032;-91
2021/11/12 08:07:05;;;;;;;13.82;10.18;;;6.00;90.80;;;;;;2095996;28;20040;-90
2021/11/12 08:08:09;;;;;;;16.75;10.80;;;6.00;90.70;;;;;;2084116;28;20111;-94
2021/11/12 08:09:16;;;;;;;15.82;10.70;;;6.00;90.70;;;;;;2081304;28;20030;-91
2021/11/12 08:10:19;;;;;;;16.15;11.02;;;6.00;90.60;;;;;;2084514;28;20025;-90
2021/11/12 08:11:27;;;;;;;15.90;10.75;;;6.00;90.60;;;;;;2099891;28;20501;-90
2021/11/12 08:12:37;;;;;;;16.02;11.10;;;6.10;90.60;;;;;;2092590;28;20025;-91
2021/11/12 08:15:28;;;;;;;18.42;10.90;;;6.10;90.50;;;;;;2099196;28;20114;-91
2021/11/12 08:16:45;;;;;;;18.17;11.50;;;6.10;90.50;;;;;;2112780;28;20124;-88
2021/11/12 08:18:04;;;;;;;16.25;11.05;;;6.10;90.50;;;;;;2099278;28;20024;-90
2021/11/12 08:20:39;;;;;;;;;;;6.20;90.50;;;;;;2079064;28;20048;-90
2021/11/12 08:21:57;;;;;;;15.50;9.68;;;6.20;90.40;;;;;;2100926;28;19920;-90
2021/11/12 08:23:02;;;;;;;14.45;9.75;;;6.20;90.40;;;;;;2102045;28;20040;-89
2021/11/12 08:25:27;;;;;;;15.23;10.40;;;6.30;90.30;;;;;;2109299;28;20034;-89
2021/11/12 08:27:56;;;;;;;15.38;10.00;;;6.30;90.30;;;;;;2113844;28;20073;-89
2021/11/12 08:36:07;;;;;;;15.07;10.65;;;6.60;90.20;;;;;;2106055;28;20458;-89
2021/11/12 08:37:26;;;;;;;15.43;10.27;;;6.60;90.10;;;;;;2104858;28;20477;-89
2021/11/12 08:42:01;;;;;;;14.10;9.93;;;6.80;90.00;;;;;;2116208;28;20080;-89
2021/11/12 08:45:22;;;;;;;13.98;9.65;;;6.80;89.70;;;;;;2093283;28;20503;-89
2021/11/12 08:46:30;;;;;;;14.77;9.98;;;6.90;89.70;;;;;;2098653;28;20111;-89
2021/11/12 08:47:38;;;;;;;14.25;10.35;;;6.90;89.60;;;;;;2098944;28;20533;-89
2021/11/12 08:49:43;;;;;;;15.93;10.48;;;6.90;89.60;;;;;;2114514;28;20023;-90
2021/11/12 08:50:44;;;;;;;15.18;10.55;;;6.90;89.60;;;;;;2113004;28;20024;-90